createdAt,value
2022-08-05T00:06:36.018Z,13.1
2022-08-05T00:11:01.940Z,13.0
2022-08-05T00:16:01.136Z,13.3
2022-08-05T00:21:01.472Z,13.5
2022-08-05T00:26:01.919Z,13.0
2022-08-05T00:31:07.781Z,12.8
2022-08-05T00:41:02.183Z,12.2
2022-08-05T00:46:04.961Z,12.2
2022-08-05T00:56:01.777Z,13.4
2022-08-05T01:01:13.371Z,13.4
2022-08-05T01:06:06.116Z,13.9
2022-08-05T01:11:01.735Z,14.2
2022-08-05T01:16:01.945Z,14.0
2022-08-05T01:26:01.565Z,14.2
2022-08-05T01:31:03.326Z,13.8
2022-08-05T01:36:02.098Z,13.4
2022-08-05T01:41:02.241Z,14.3
2022-08-05T01:51:13.550Z,14.0
2022-08-05T01:56:09.161Z,14.3
2022-08-05T02:01:01.550Z,14.8
2022-08-05T02:11:01.580Z,15.1
2022-08-05T02:21:01.537Z,16.0
2022-08-05T02:26:02.128Z,15.9
2022-08-05T02:31:01.666Z,15.4
2022-08-05T02:36:02.115Z,14.8
2022-08-05T02:41:17.919Z,14.7
2022-08-05T02:46:02.510Z,14.7
2022-08-05T02:51:01.427Z,15.0
2022-08-05T02:56:02.623Z,15.5
2022-08-05T03:01:02.613Z,15.4
2022-08-05T03:16:01.303Z,14.4
2022-08-05T03:21:03.968Z,14.8
2022-08-05T03:31:01.886Z,16.6
2022-08-05T03:36:06.824Z,16.2
2022-08-05T03:41:11.260Z,16.0
2022-08-05T03:46:01.691Z,15.4
2022-08-05T04:06:01.689Z,14.5
2022-08-05T04:11:01.802Z,14.6
2022-08-05T04:16:05.159Z,14.4
2022-08-05T04:21:01.771Z,15.1
2022-08-05T04:26:04.663Z,15.8
2022-08-05T04:31:10.739Z,16.3
2022-08-05T04:41:05.035Z,17.0
2022-08-05T04:46:01.404Z,16.6
2022-08-05T04:51:13.822Z,16.2
2022-08-05T05:01:01.915Z,15.1
2022-08-05T05:11:02.651Z,14.2
2022-08-05T05:16:07.811Z,14.0
2022-08-05T05:21:04.344Z,14.3
2022-08-05T05:26:03.579Z,13.8
2022-08-05T05:31:09.826Z,13.6
2022-08-05T05:36:01.497Z,12.3
2022-08-05T05:41:01.920Z,12.4
2022-08-05T05:51:17.425Z,13.3
2022-08-05T05:56:04.906Z,13.6
2022-08-05T06:01:15.530Z,14.7
2022-08-05T06:06:01.540Z,14.1
2022-08-05T06:11:01.686Z,14.0
2022-08-05T06:21:01.513Z,12.2
2022-08-05T06:31:21.817Z,11.3
2022-08-05T06:36:11.459Z,10.7
2022-08-05T06:41:03.514Z,10.8
2022-08-05T06:46:07.738Z,11.2
2022-08-05T06:51:28.279Z,11.4
2022-08-05T06:56:01.479Z,11.7
2022-08-05T07:01:04.203Z,12.4
2022-08-05T07:06:15.375Z,12.9
2022-08-05T07:11:02.279Z,13.4
2022-08-05T07:16:05.863Z,13.6
2022-08-05T07:21:05.926Z,14.1
2022-08-05T07:26:02.292Z,14.2
2022-08-05T07:31:02.744Z,14.6
2022-08-05T07:46:02.806Z,15.0
2022-08-05T07:51:02.320Z,15.0
2022-08-05T08:06:02.612Z,15.7
2022-08-05T08:11:01.908Z,15.8
2022-08-05T08:45:30.830Z,15.0
2022-08-05T09:01:02.874Z,12.8
2022-08-05T09:06:29.788Z,13.2
2022-08-05T09:11:01.965Z,12.6
2022-08-05T09:16:03.859Z,13.3
2022-08-05T09:26:09.464Z,13.4
2022-08-05T09:36:16.957Z,13.6
2022-08-05T09:41:04.295Z,13.8
2022-08-05T09:51:16.129Z,14.4
2022-08-05T09:56:13.649Z,15.4
2022-08-05T10:06:20.982Z,15.7
2022-08-05T10:11:03.187Z,16.2
2022-08-05T10:16:02.261Z,16.3
2022-08-05T10:21:20.028Z,17.2
2022-08-05T10:26:01.696Z,17.2
2022-08-05T10:36:01.621Z,17.8
2022-08-05T10:41:01.606Z,18.1
2022-08-05T10:46:07.338Z,17.8
2022-08-05T10:56:29.770Z,17.0
2022-08-05T11:01:05.032Z,16.8
2022-08-05T11:11:54.038Z,15.1
2022-08-05T11:16:21.837Z,15.0
2022-08-05T11:21:11.552Z,15.2
2022-08-05T11:26:10.229Z,14.9
2022-08-05T11:31:07.576Z,14.8
2022-08-05T11:36:09.127Z,15.1
2022-08-05T11:51:03.990Z,13.6
2022-08-05T11:56:11.485Z,12.7
2022-08-05T12:01:10.500Z,12.4
2022-08-05T12:06:02.368Z,12.4
2022-08-05T12:11:07.715Z,12.0
2022-08-05T12:16:01.751Z,11.5
2022-08-05T12:21:12.562Z,11.2
2022-08-05T12:26:02.142Z,10.8
2022-08-05T12:31:03.817Z,10.3
2022-08-05T12:36:09.689Z,9.8
2022-08-05T12:41:01.754Z,9.6
2022-08-05T12:46:01.819Z,9.2
2022-08-05T12:57:13.504Z,9.3
2022-08-05T13:02:10.315Z,9.5
2022-08-05T13:07:10.622Z,9.6
2022-08-05T13:12:04.000Z,10.2
2022-08-05T13:17:10.182Z,10.4
2022-08-05T13:22:03.470Z,10.4
2022-08-05T13:27:01.712Z,9.4
2022-08-05T13:32:05.686Z,9.2
2022-08-05T13:37:01.749Z,8.8
2022-08-05T13:42:02.918Z,8.5
2022-08-05T13:47:09.868Z,7.8
2022-08-05T13:52:01.816Z,8.3
2022-08-05T13:57:02.817Z,8.2
2022-08-05T14:02:31.455Z,7.8
2022-08-05T14:22:12.793Z,8.4
2022-08-05T14:27:18.940Z,8.2
2022-08-05T14:32:28.237Z,7.9
2022-08-05T14:37:01.541Z,7.5
2022-08-05T14:47:03.940Z,7.1
2022-08-05T14:52:02.035Z,7.5
2022-08-05T14:57:13.821Z,7.8
2022-08-05T15:02:16.616Z,7.9
2022-08-05T15:07:03.759Z,7.8
2022-08-05T15:12:04.364Z,7.8
2022-08-05T15:22:02.499Z,7.7
2022-08-05T15:27:09.926Z,7.6
2022-08-05T15:32:06.247Z,7.0
2022-08-05T15:47:01.858Z,7.2
2022-08-05T15:57:02.162Z,8.0
2022-08-05T16:02:02.225Z,7.5
2022-08-05T16:07:02.388Z,7.5
2022-08-05T16:12:02.831Z,7.6
2022-08-05T16:17:01.758Z,7.6
2022-08-05T16:22:03.801Z,7.3
2022-08-05T16:27:02.401Z,8.1
2022-08-05T16:32:05.664Z,8.2
2022-08-05T16:42:28.884Z,7.9
2022-08-05T16:47:02.158Z,8.4
2022-08-05T16:52:05.215Z,8.3
2022-08-05T16:57:02.966Z,8.0
2022-08-05T17:02:02.260Z,7.6
2022-08-05T17:07:12.299Z,7.9
2022-08-05T17:12:05.397Z,7.7
2022-08-05T17:17:04.723Z,7.1
2022-08-05T17:22:04.642Z,6.8
2022-08-05T17:27:02.540Z,6.1
2022-08-05T17:32:01.615Z,5.7
2022-08-05T17:37:01.804Z,4.7
2022-08-05T17:42:33.228Z,4.8
2022-08-05T17:47:02.008Z,5.0
2022-08-05T17:52:02.014Z,5.2
2022-08-05T17:57:12.599Z,4.8
2022-08-05T18:02:11.709Z,5.6
2022-08-05T18:07:04.438Z,5.6
2022-08-05T18:12:01.958Z,5.9
2022-08-05T18:22:57.784Z,8.9
2022-08-05T18:27:02.363Z,9.6
2022-08-05T18:32:04.196Z,10.6
2022-08-05T18:37:01.370Z,11.7
2022-08-05T18:42:12.337Z,12.2
2022-08-05T18:47:02.416Z,12.4
2022-08-05T18:52:10.740Z,12.7
2022-08-05T18:57:02.046Z,13.0
2022-08-05T19:07:02.824Z,13.6
2022-08-05T19:12:02.021Z,13.5
2022-08-05T19:17:07.773Z,13.3
2022-08-05T19:22:02.317Z,12.4
2022-08-05T19:27:07.258Z,11.4
2022-08-05T19:32:04.881Z,9.6
2022-08-05T19:37:02.211Z,8.2
2022-08-05T19:42:15.498Z,7.3
2022-08-05T19:47:01.797Z,6.5
2022-08-05T19:57:11.551Z,5.3
2022-08-05T20:02:03.094Z,4.9
2022-08-05T20:07:02.211Z,4.2
2022-08-05T20:12:03.440Z,3.6
2022-08-05T20:17:02.406Z,2.6
2022-08-05T20:22:02.440Z,2.0
2022-08-05T20:27:02.624Z,1.3
2022-08-05T20:32:03.811Z,0.8
2022-08-05T20:37:03.764Z,0.5
2022-08-05T20:42:01.728Z,0.9
2022-08-05T20:47:07.842Z,0.7
2022-08-05T20:52:02.431Z,0.6
2022-08-05T21:02:04.350Z,0.4
2022-08-05T21:07:02.098Z,0.2
2022-08-05T21:12:17.177Z,0.6
2022-08-05T21:17:06.235Z,0.8
2022-08-05T21:27:02.495Z,1.2
2022-08-05T21:32:01.724Z,1.2
2022-08-05T21:37:02.581Z,1.2
2022-08-05T21:47:02.628Z,1.4
2022-08-05T22:02:02.436Z,1.8
2022-08-05T22:07:01.777Z,2.4
2022-08-05T22:12:11.029Z,2.4
2022-08-05T22:17:07.492Z,2.6
2022-08-05T22:22:01.708Z,2.6
2022-08-05T22:32:10.249Z,2.3
2022-08-05T22:37:04.987Z,2.5
2022-08-05T22:47:06.852Z,2.5
2022-08-05T22:57:03.729Z,2.6
2022-08-05T23:07:01.792Z,2.5
2022-08-05T23:12:01.909Z,2.7
2022-08-05T23:17:02.180Z,2.7
2022-08-05T23:22:01.733Z,2.9
2022-08-05T23:27:01.803Z,2.8
2022-08-05T23:37:01.724Z,2.9
2022-08-05T23:42:02.560Z,2.8
2022-08-05T23:47:16.010Z,3.0
2022-08-05T23:52:05.828Z,3.0
2022-08-05T23:57:05.183Z,3.2
